sensor_id;sensor_type;location;lat;lon;timestamp;P1;durP1;ratioP1;P2;durP2;ratioP2
8791;SDS011;4432;50.890;4.744;2022-11-15T00:01:46;12.80;;;7.73;;
8791;SDS011;4432;50.890;4.744;2022-11-15T00:04:12;14.00;;;7.47;;
8791;SDS011;4432;50.890;4.744;2022-11-15T00:06:37;9.90;;;7.17;;
8791;SDS011;4432;50.890;4.744;2022-11-15T00:09:03;11.53;;;8.53;;
8791;SDS011;4432;50.890;4.744;2022-11-15T00:11:28;12.70;;;7.40;;
8791;SDS011;4432;50.890;4.744;2022-11-15T00:13:55;11.73;;;7.17;;
8791;SDS011;4432;50.890;4.744;2022-11-15T00:16:22;11.47;;;7.57;;
8791;SDS011;4432;50.890;4.744;2022-11-15T00:18:48;12.27;;;8.13;;
8791;SDS011;4432;50.890;4.744;2022-11-15T00:21:15;13.17;;;8.30;;
8791;SDS011;4432;50.890;4.744;2022-11-15T00:23:41;13.87;;;8.03;;
8791;SDS011;4432;50.890;4.744;2022-11-15T00:26:10;12.30;;;8.50;;
8791;SDS011;4432;50.890;4.744;2022-11-15T00:28:40;14.33;;;8.30;;
8791;SDS011;4432;50.890;4.744;2022-11-15T00:31:08;15.70;;;9.13;;
8791;SDS011;4432;50.890;4.744;2022-11-15T00:33:37;16.30;;;7.93;;
8791;SDS011;4432;50.890;4.744;2022-11-15T00:36:03;15.30;;;8.93;;
8791;SDS011;4432;50.890;4.744;2022-11-15T00:38:32;12.73;;;8.63;;
8791;SDS011;4432;50.890;4.744;2022-11-15T00:40:58;13.63;;;8.40;;
8791;SDS011;4432;50.890;4.744;2022-11-15T00:43:25;12.00;;;8.27;;
8791;SDS011;4432;50.890;4.744;2022-11-15T00:45:51;13.87;;;8.83;;
8791;SDS011;4432;50.890;4.744;2022-11-15T00:48:17;15.60;;;8.50;;
8791;SDS011;4432;50.890;4.744;2022-11-15T00:50:42;16.77;;;8.73;;
8791;SDS011;4432;50.890;4.744;2022-11-15T00:53:08;13.17;;;8.40;;
8791;SDS011;4432;50.890;4.744;2022-11-15T00:55:35;15.13;;;8.43;;
8791;SDS011;4432;50.890;4.744;2022-11-15T00:58:00;10.70;;;8.23;;
8791;SDS011;4432;50.890;4.744;2022-11-15T01:00:26;12.57;;;8.50;;
8791;SDS011;4432;50.890;4.744;2022-11-15T01:02:52;14.80;;;8.37;;
8791;SDS011;4432;50.890;4.744;2022-11-15T01:05:17;14.57;;;8.73;;
8791;SDS011;4432;50.890;4.744;2022-11-15T01:07:43;13.83;;;8.13;;
8791;SDS011;4432;50.890;4.744;2022-11-15T01:10:09;13.27;;;8.73;;
8791;SDS011;4432;50.890;4.744;2022-11-15T01:12:35;12.10;;;8.50;;
8791;SDS011;4432;50.890;4.744;2022-11-15T01:15:00;11.70;;;7.63;;
8791;SDS011;4432;50.890;4.744;2022-11-15T01:17:27;15.13;;;8.37;;
8791;SDS011;4432;50.890;4.744;2022-11-15T01:19:53;14.50;;;8.13;;
8791;SDS011;4432;50.890;4.744;2022-11-15T01:22:18;13.90;;;8.40;;
8791;SDS011;4432;50.890;4.744;2022-11-15T01:24:44;14.47;;;8.47;;
8791;SDS011;4432;50.890;4.744;2022-11-15T01:27:10;14.27;;;9.17;;
8791;SDS011;4432;50.890;4.744;2022-11-15T01:29:35;12.83;;;7.63;;
8791;SDS011;4432;50.890;4.744;2022-11-15T01:32:01;11.00;;;8.17;;
8791;SDS011;4432;50.890;4.744;2022-11-15T01:34:27;14.13;;;8.63;;
8791;SDS011;4432;50.890;4.744;2022-11-15T01:36:53;14.40;;;8.50;;
8791;SDS011;4432;50.890;4.744;2022-11-15T01:39:19;13.17;;;8.57;;
8791;SDS011;4432;50.890;4.744;2022-11-15T01:41:44;11.30;;;8.17;;
8791;SDS011;4432;50.890;4.744;2022-11-15T01:44:34;18.00;;;9.17;;
8791;SDS011;4432;50.890;4.744;2022-11-15T01:47:15;14.60;;;8.77;;
8791;SDS011;4432;50.890;4.744;2022-11-15T01:49:59;14.33;;;9.37;;
8791;SDS011;4432;50.890;4.744;2022-11-15T01:52:29;13.13;;;9.00;;
8791;SDS011;4432;50.890;4.744;2022-11-15T01:54:59;26.90;;;10.73;;
8791;SDS011;4432;50.890;4.744;2022-11-15T01:57:33;16.43;;;8.80;;
8791;SDS011;4432;50.890;4.744;2022-11-15T02:00:00;20.90;;;9.17;;
8791;SDS011;4432;50.890;4.744;2022-11-15T02:02:29;13.87;;;9.07;;
8791;SDS011;4432;50.890;4.744;2022-11-15T02:04:55;17.03;;;9.50;;
8791;SDS011;4432;50.890;4.744;2022-11-15T02:07:21;15.07;;;8.73;;
8791;SDS011;4432;50.890;4.744;2022-11-15T02:09:47;13.23;;;9.07;;
8791;SDS011;4432;50.890;4.744;2022-11-15T02:12:15;13.27;;;8.87;;
8791;SDS011;4432;50.890;4.744;2022-11-15T02:14:44;15.30;;;9.03;;
8791;SDS011;4432;50.890;4.744;2022-11-15T02:17:19;12.47;;;8.47;;
8791;SDS011;4432;50.890;4.744;2022-11-15T02:36:28;11.83;;;8.33;;
8791;SDS011;4432;50.890;4.744;2022-11-15T02:42:25;12.10;;;7.47;;
8791;SDS011;4432;50.890;4.744;2022-11-15T02:45:13;13.40;;;7.73;;
8791;SDS011;4432;50.890;4.744;2022-11-15T02:47:44;11.90;;;8.53;;
8791;SDS011;4432;50.890;4.744;2022-11-15T02:50:15;19.27;;;8.80;;
8791;SDS011;4432;50.890;4.744;2022-11-15T02:52:48;11.20;;;8.07;;
8791;SDS011;4432;50.890;4.744;2022-11-15T02:55:31;13.63;;;7.53;;
8791;SDS011;4432;50.890;4.744;2022-11-15T03:00:53;11.47;;;7.70;;
8791;SDS011;4432;50.890;4.744;2022-11-15T03:03:33;11.67;;;8.17;;
8791;SDS011;4432;50.890;4.744;2022-11-15T03:06:09;11.87;;;7.70;;
8791;SDS011;4432;50.890;4.744;2022-11-15T03:09:02;13.93;;;8.40;;
8791;SDS011;4432;50.890;4.744;2022-11-15T03:11:41;11.00;;;7.87;;
8791;SDS011;4432;50.890;4.744;2022-11-15T03:16:58;12.00;;;8.53;;
8791;SDS011;4432;50.890;4.744;2022-11-15T03:19:44;15.93;;;8.77;;
8791;SDS011;4432;50.890;4.744;2022-11-15T03:22:14;11.80;;;7.63;;
8791;SDS011;4432;50.890;4.744;2022-11-15T03:24:43;16.47;;;9.00;;
8791;SDS011;4432;50.890;4.744;2022-11-15T03:27:13;12.03;;;7.90;;
8791;SDS011;4432;50.890;4.744;2022-11-15T03:29:50;12.40;;;8.37;;
8791;SDS011;4432;50.890;4.744;2022-11-15T03:32:21;14.17;;;8.57;;
8791;SDS011;4432;50.890;4.744;2022-11-15T03:34:57;11.50;;;8.40;;
8791;SDS011;4432;50.890;4.744;2022-11-15T03:37:36;12.13;;;8.93;;
8791;SDS011;4432;50.890;4.744;2022-11-15T03:40:06;14.77;;;8.67;;
8791;SDS011;4432;50.890;4.744;2022-11-15T03:45:55;14.27;;;9.77;;
8791;SDS011;4432;50.890;4.744;2022-11-15T03:48:27;15.90;;;9.17;;
8791;SDS011;4432;50.890;4.744;2022-11-15T03:51:00;13.57;;;8.83;;
8791;SDS011;4432;50.890;4.744;2022-11-15T03:53:27;13.23;;;8.60;;
8791;SDS011;4432;50.890;4.744;2022-11-15T03:55:53;13.33;;;8.63;;
8791;SDS011;4432;50.890;4.744;2022-11-15T03:58:19;12.10;;;8.37;;
8791;SDS011;4432;50.890;4.744;2022-11-15T04:00:45;18.27;;;9.07;;
8791;SDS011;4432;50.890;4.744;2022-11-15T04:03:11;12.83;;;7.37;;
8791;SDS011;4432;50.890;4.744;2022-11-15T04:05:36;9.80;;;7.23;;
8791;SDS011;4432;50.890;4.744;2022-11-15T04:08:02;12.17;;;7.00;;
8791;SDS011;4432;50.890;4.744;2022-11-15T04:10:28;13.03;;;7.13;;
8791;SDS011;4432;50.890;4.744;2022-11-15T04:12:53;11.80;;;7.43;;
8791;SDS011;4432;50.890;4.744;2022-11-15T04:15:20;14.30;;;7.63;;
8791;SDS011;4432;50.890;4.744;2022-11-15T04:17:48;12.67;;;7.73;;
8791;SDS011;4432;50.890;4.744;2022-11-15T04:20:19;12.03;;;7.60;;
8791;SDS011;4432;50.890;4.744;2022-11-15T04:23:06;11.40;;;7.33;;
8791;SDS011;4432;50.890;4.744;2022-11-15T04:25:53;9.20;;;6.53;;
8791;SDS011;4432;50.890;4.744;2022-11-15T04:28:20;15.23;;;6.63;;
8791;SDS011;4432;50.890;4.744;2022-11-15T04:30:46;10.13;;;7.40;;
8791;SDS011;4432;50.890;4.744;2022-11-15T04:33:12;9.67;;;6.17;;
8791;SDS011;4432;50.890;4.744;2022-11-15T04:35:38;9.70;;;6.93;;
8791;SDS011;4432;50.890;4.744;2022-11-15T04:38:05;13.77;;;7.73;;
8791;SDS011;4432;50.890;4.744;2022-11-15T04:40:32;9.27;;;6.93;;
8791;SDS011;4432;50.890;4.744;2022-11-15T04:42:58;12.97;;;7.57;;
8791;SDS011;4432;50.890;4.744;2022-11-15T04:45:24;12.83;;;6.73;;
8791;SDS011;4432;50.890;4.744;2022-11-15T04:47:50;10.60;;;6.33;;
8791;SDS011;4432;50.890;4.744;2022-11-15T04:50:16;7.93;;;6.13;;
8791;SDS011;4432;50.890;4.744;2022-11-15T04:52:43;9.73;;;5.90;;
8791;SDS011;4432;50.890;4.744;2022-11-15T04:55:15;9.53;;;6.23;;
8791;SDS011;4432;50.890;4.744;2022-11-15T04:57:41;10.73;;;5.53;;
8791;SDS011;4432;50.890;4.744;2022-11-15T05:00:08;10.37;;;6.27;;
8791;SDS011;4432;50.890;4.744;2022-11-15T05:02:35;9.37;;;5.87;;
8791;SDS011;4432;50.890;4.744;2022-11-15T05:05:20;7.50;;;5.23;;
8791;SDS011;4432;50.890;4.744;2022-11-15T05:07:45;7.03;;;4.60;;
8791;SDS011;4432;50.890;4.744;2022-11-15T05:10:11;7.47;;;4.87;;
8791;SDS011;4432;50.890;4.744;2022-11-15T05:12:37;6.90;;;5.00;;
8791;SDS011;4432;50.890;4.744;2022-11-15T05:15:03;11.33;;;4.90;;
8791;SDS011;4432;50.890;4.744;2022-11-15T05:17:29;9.17;;;4.90;;
8791;SDS011;4432;50.890;4.744;2022-11-15T05:19:55;9.57;;;4.80;;
8791;SDS011;4432;50.890;4.744;2022-11-15T05:22:20;8.17;;;4.77;;
8791;SDS011;4432;50.890;4.744;2022-11-15T05:24:47;7.00;;;5.23;;
8791;SDS011;4432;50.890;4.744;2022-11-15T05:27:13;6.07;;;5.00;;
8791;SDS011;4432;50.890;4.744;2022-11-15T05:29:39;9.53;;;6.07;;
8791;SDS011;4432;50.890;4.744;2022-11-15T05:32:05;8.27;;;4.93;;
8791;SDS011;4432;50.890;4.744;2022-11-15T05:34:31;7.33;;;4.93;;
8791;SDS011;4432;50.890;4.744;2022-11-15T05:36:57;8.10;;;5.00;;
8791;SDS011;4432;50.890;4.744;2022-11-15T05:39:24;10.13;;;5.17;;
8791;SDS011;4432;50.890;4.744;2022-11-15T05:41:59;5.30;;;4.50;;
8791;SDS011;4432;50.890;4.744;2022-11-15T05:44:39;6.37;;;4.37;;
8791;SDS011;4432;50.890;4.744;2022-11-15T05:47:10;6.87;;;4.63;;
8791;SDS011;4432;50.890;4.744;2022-11-15T05:49:41;6.50;;;4.37;;
8791;SDS011;4432;50.890;4.744;2022-11-15T05:52:10;4.90;;;4.40;;
8791;SDS011;4432;50.890;4.744;2022-11-15T05:54:39;5.77;;;4.40;;
8791;SDS011;4432;50.890;4.744;2022-11-15T05:57:06;9.13;;;4.43;;
8791;SDS011;4432;50.890;4.744;2022-11-15T05:59:32;4.93;;;4.13;;
8791;SDS011;4432;50.890;4.744;2022-11-15T06:01:58;6.00;;;3.80;;
8791;SDS011;4432;50.890;4.744;2022-11-15T06:04:24;6.27;;;4.17;;
8791;SDS011;4432;50.890;4.744;2022-11-15T06:06:50;7.70;;;5.17;;
8791;SDS011;4432;50.890;4.744;2022-11-15T06:09:16;8.67;;;4.73;;
8791;SDS011;4432;50.890;4.744;2022-11-15T06:11:41;6.70;;;4.27;;
8791;SDS011;4432;50.890;4.744;2022-11-15T06:14:07;10.90;;;5.37;;
8791;SDS011;4432;50.890;4.744;2022-11-15T06:16:33;6.70;;;4.60;;
8791;SDS011;4432;50.890;4.744;2022-11-15T06:18:58;6.80;;;4.20;;
8791;SDS011;4432;50.890;4.744;2022-11-15T06:21:24;11.73;;;5.10;;
8791;SDS011;4432;50.890;4.744;2022-11-15T06:23:52;8.20;;;4.77;;
8791;SDS011;4432;50.890;4.744;2022-11-15T06:26:18;10.30;;;4.53;;
8791;SDS011;4432;50.890;4.744;2022-11-15T06:28:44;7.07;;;4.63;;
8791;SDS011;4432;50.890;4.744;2022-11-15T06:31:10;7.60;;;4.80;;
8791;SDS011;4432;50.890;4.744;2022-11-15T06:33:39;6.97;;;4.70;;
8791;SDS011;4432;50.890;4.744;2022-11-15T06:36:06;5.90;;;4.20;;
8791;SDS011;4432;50.890;4.744;2022-11-15T06:38:34;7.50;;;4.80;;
8791;SDS011;4432;50.890;4.744;2022-11-15T06:41:04;6.83;;;5.00;;
8791;SDS011;4432;50.890;4.744;2022-11-15T06:43:32;8.17;;;4.73;;
8791;SDS011;4432;50.890;4.744;2022-11-15T06:46:02;6.40;;;4.17;;
8791;SDS011;4432;50.890;4.744;2022-11-15T06:48:29;5.90;;;4.80;;
8791;SDS011;4432;50.890;4.744;2022-11-15T06:50:57;8.13;;;4.60;;
8791;SDS011;4432;50.890;4.744;2022-11-15T06:53:23;7.67;;;4.97;;
8791;SDS011;4432;50.890;4.744;2022-11-15T06:55:50;6.67;;;5.03;;
8791;SDS011;4432;50.890;4.744;2022-11-15T06:58:16;6.57;;;4.73;;
8791;SDS011;4432;50.890;4.744;2022-11-15T07:00:42;12.17;;;4.60;;
8791;SDS011;4432;50.890;4.744;2022-11-15T07:03:08;8.20;;;5.33;;
8791;SDS011;4432;50.890;4.744;2022-11-15T07:05:34;10.30;;;5.17;;
8791;SDS011;4432;50.890;4.744;2022-11-15T07:08:00;6.33;;;4.70;;
8791;SDS011;4432;50.890;4.744;2022-11-15T07:10:26;6.97;;;5.17;;
8791;SDS011;4432;50.890;4.744;2022-11-15T07:12:53;7.57;;;4.37;;
8791;SDS011;4432;50.890;4.744;2022-11-15T07:15:20;13.33;;;4.80;;
8791;SDS011;4432;50.890;4.744;2022-11-15T07:17:47;7.97;;;5.10;;
8791;SDS011;4432;50.890;4.744;2022-11-15T07:20:13;9.37;;;4.83;;
8791;SDS011;4432;50.890;4.744;2022-11-15T07:22:42;8.60;;;4.50;;
8791;SDS011;4432;50.890;4.744;2022-11-15T07:25:10;6.43;;;4.43;;
8791;SDS011;4432;50.890;4.744;2022-11-15T07:27:36;6.40;;;4.70;;
8791;SDS011;4432;50.890;4.744;2022-11-15T07:30:02;6.73;;;3.97;;
8791;SDS011;4432;50.890;4.744;2022-11-15T07:32:29;7.50;;;4.30;;
8791;SDS011;4432;50.890;4.744;2022-11-15T07:34:55;4.43;;;4.03;;
8791;SDS011;4432;50.890;4.744;2022-11-15T07:37:20;8.17;;;3.60;;
8791;SDS011;4432;50.890;4.744;2022-11-15T07:39:46;6.47;;;3.67;;
8791;SDS011;4432;50.890;4.744;2022-11-15T07:42:12;8.10;;;3.50;;
8791;SDS011;4432;50.890;4.744;2022-11-15T07:44:56;9.53;;;4.07;;
8791;SDS011;4432;50.890;4.744;2022-11-15T07:47:22;9.63;;;3.93;;
8791;SDS011;4432;50.890;4.744;2022-11-15T07:49:47;10.63;;;4.07;;
8791;SDS011;4432;50.890;4.744;2022-11-15T07:52:13;8.23;;;3.80;;
8791;SDS011;4432;50.890;4.744;2022-11-15T07:54:39;5.10;;;3.87;;
8791;SDS011;4432;50.890;4.744;2022-11-15T07:57:05;5.70;;;3.57;;
8791;SDS011;4432;50.890;4.744;2022-11-15T07:59:32;5.50;;;3.70;;
8791;SDS011;4432;50.890;4.744;2022-11-15T08:01:59;6.37;;;3.97;;
8791;SDS011;4432;50.890;4.744;2022-11-15T08:04:25;6.73;;;3.57;;
8791;SDS011;4432;50.890;4.744;2022-11-15T08:06:51;3.83;;;3.43;;
8791;SDS011;4432;50.890;4.744;2022-11-15T08:09:16;9.90;;;3.73;;
8791;SDS011;4432;50.890;4.744;2022-11-15T08:11:42;12.67;;;3.93;;
8791;SDS011;4432;50.890;4.744;2022-11-15T08:14:08;5.93;;;4.00;;
8791;SDS011;4432;50.890;4.744;2022-11-15T08:16:34;5.97;;;3.27;;
8791;SDS011;4432;50.890;4.744;2022-11-15T08:18:59;5.27;;;3.17;;
8791;SDS011;4432;50.890;4.744;2022-11-15T08:21:25;5.30;;;3.00;;
8791;SDS011;4432;50.890;4.744;2022-11-15T08:23:50;4.53;;;2.80;;
8791;SDS011;4432;50.890;4.744;2022-11-15T08:26:16;5.50;;;2.67;;
8791;SDS011;4432;50.890;4.744;2022-11-15T08:28:43;2.43;;;2.00;;
8791;SDS011;4432;50.890;4.744;2022-11-15T08:31:15;2.07;;;1.70;;
8791;SDS011;4432;50.890;4.744;2022-11-15T08:33:43;4.23;;;1.40;;
8791;SDS011;4432;50.890;4.744;2022-11-15T08:36:12;3.33;;;1.53;;
8791;SDS011;4432;50.890;4.744;2022-11-15T08:38:40;1.47;;;1.37;;
8791;SDS011;4432;50.890;4.744;2022-11-15T08:41:05;1.43;;;1.33;;
8791;SDS011;4432;50.890;4.744;2022-11-15T08:43:32;2.60;;;1.10;;
8791;SDS011;4432;50.890;4.744;2022-11-15T08:45:58;1.50;;;1.40;;
8791;SDS011;4432;50.890;4.744;2022-11-15T08:48:23;2.43;;;1.03;;
8791;SDS011;4432;50.890;4.744;2022-11-15T08:50:53;2.13;;;1.20;;
8791;SDS011;4432;50.890;4.744;2022-11-15T08:53:20;4.70;;;1.10;;
8791;SDS011;4432;50.890;4.744;2022-11-15T08:55:45;1.13;;;1.13;;
8791;SDS011;4432;50.890;4.744;2022-11-15T08:58:11;2.57;;;1.17;;
8791;SDS011;4432;50.890;4.744;2022-11-15T09:00:37;3.47;;;1.30;;
8791;SDS011;4432;50.890;4.744;2022-11-15T09:03:03;4.30;;;1.30;;
8791;SDS011;4432;50.890;4.744;2022-11-15T09:05:30;7.17;;;1.50;;
8791;SDS011;4432;50.890;4.744;2022-11-15T09:07:56;1.23;;;1.00;;
8791;SDS011;4432;50.890;4.744;2022-11-15T09:10:22;3.47;;;1.43;;
8791;SDS011;4432;50.890;4.744;2022-11-15T09:12:48;4.63;;;1.37;;
8791;SDS011;4432;50.890;4.744;2022-11-15T09:15:14;2.40;;;0.93;;
8791;SDS011;4432;50.890;4.744;2022-11-15T09:17:40;1.33;;;1.10;;
8791;SDS011;4432;50.890;4.744;2022-11-15T09:20:07;5.03;;;1.47;;
8791;SDS011;4432;50.890;4.744;2022-11-15T09:22:33;0.97;;;0.97;;
8791;SDS011;4432;50.890;4.744;2022-11-15T09:24:59;3.37;;;1.03;;
8791;SDS011;4432;50.890;4.744;2022-11-15T09:27:31;6.27;;;1.57;;
8791;SDS011;4432;50.890;4.744;2022-11-15T09:29:57;4.13;;;1.33;;
8791;SDS011;4432;50.890;4.744;2022-11-15T09:32:22;3.53;;;1.13;;
8791;SDS011;4432;50.890;4.744;2022-11-15T09:34:51;3.87;;;1.20;;
8791;SDS011;4432;50.890;4.744;2022-11-15T09:37:17;4.10;;;1.00;;
8791;SDS011;4432;50.890;4.744;2022-11-15T09:39:43;2.03;;;1.03;;
8791;SDS011;4432;50.890;4.744;2022-11-15T09:50:12;2.23;;;1.10;;
8791;SDS011;4432;50.890;4.744;2022-11-15T09:52:42;5.13;;;1.20;;
8791;SDS011;4432;50.890;4.744;2022-11-15T09:55:10;5.63;;;1.07;;
8791;SDS011;4432;50.890;4.744;2022-11-15T09:57:54;3.13;;;1.10;;
8791;SDS011;4432;50.890;4.744;2022-11-15T10:00:37;1.60;;;1.10;;
8791;SDS011;4432;50.890;4.744;2022-11-15T10:03:09;1.00;;;0.90;;
8791;SDS011;4432;50.890;4.744;2022-11-15T10:05:42;2.00;;;1.10;;
8791;SDS011;4432;50.890;4.744;2022-11-15T10:10:53;3.40;;;1.20;;
8791;SDS011;4432;50.890;4.744;2022-11-15T10:13:26;1.47;;;1.10;;
8791;SDS011;4432;50.890;4.744;2022-11-15T10:15:57;2.27;;;1.30;;
8791;SDS011;4432;50.890;4.744;2022-11-15T10:21:49;3.27;;;1.10;;
8791;SDS011;4432;50.890;4.744;2022-11-15T10:24:31;3.97;;;0.90;;
8791;SDS011;4432;50.890;4.744;2022-11-15T10:27:03;4.57;;;1.17;;
8791;SDS011;4432;50.890;4.744;2022-11-15T10:29:42;3.27;;;0.90;;
8791;SDS011;4432;50.890;4.744;2022-11-15T10:32:13;2.10;;;1.07;;
8791;SDS011;4432;50.890;4.744;2022-11-15T10:34:40;4.83;;;1.50;;
8791;SDS011;4432;50.890;4.744;2022-11-15T10:37:06;1.97;;;0.87;;
8791;SDS011;4432;50.890;4.744;2022-11-15T10:39:32;1.63;;;1.10;;
8791;SDS011;4432;50.890;4.744;2022-11-15T10:42:05;2.27;;;1.03;;
8791;SDS011;4432;50.890;4.744;2022-11-15T10:44:42;5.23;;;1.20;;
8791;SDS011;4432;50.890;4.744;2022-11-15T10:50:26;0.80;;;0.80;;
8791;SDS011;4432;50.890;4.744;2022-11-15T10:52:57;3.40;;;0.93;;
8791;SDS011;4432;50.890;4.744;2022-11-15T10:55:29;3.53;;;0.97;;
8791;SDS011;4432;50.890;4.744;2022-11-15T10:58:04;2.03;;;0.93;;
8791;SDS011;4432;50.890;4.744;2022-11-15T11:00:44;1.80;;;1.00;;
8791;SDS011;4432;50.890;4.744;2022-11-15T11:03:27;1.93;;;1.00;;
8791;SDS011;4432;50.890;4.744;2022-11-15T11:06:03;2.20;;;0.70;;
8791;SDS011;4432;50.890;4.744;2022-11-15T11:08:40;1.70;;;0.90;;
8791;SDS011;4432;50.890;4.744;2022-11-15T11:11:17;0.97;;;0.83;;
8791;SDS011;4432;50.890;4.744;2022-11-15T11:13:43;3.67;;;1.10;;
8791;SDS011;4432;50.890;4.744;2022-11-15T11:24:45;5.47;;;1.00;;
8791;SDS011;4432;50.890;4.744;2022-11-15T11:27:16;1.10;;;0.83;;
8791;SDS011;4432;50.890;4.744;2022-11-15T11:30:02;1.30;;;0.87;;
8791;SDS011;4432;50.890;4.744;2022-11-15T11:32:44;3.43;;;1.00;;
8791;SDS011;4432;50.890;4.744;2022-11-15T11:35:33;9.13;;;1.40;;
8791;SDS011;4432;50.890;4.744;2022-11-15T11:41:08;4.67;;;1.20;;
8791;SDS011;4432;50.890;4.744;2022-11-15T11:49:22;2.10;;;1.30;;
8791;SDS011;4432;50.890;4.744;2022-11-15T11:57:49;8.97;;;2.27;;
8791;SDS011;4432;50.890;4.744;2022-11-15T12:00:43;2.40;;;0.97;;
8791;SDS011;4432;50.890;4.744;2022-11-15T12:06:02;1.50;;;0.80;;
8791;SDS011;4432;50.890;4.744;2022-11-15T12:08:41;2.73;;;0.80;;
8791;SDS011;4432;50.890;4.744;2022-11-15T12:14:25;2.37;;;0.67;;
8791;SDS011;4432;50.890;4.744;2022-11-15T12:16:52;1.20;;;1.10;;
8791;SDS011;4432;50.890;4.744;2022-11-15T12:19:18;2.37;;;0.80;;
8791;SDS011;4432;50.890;4.744;2022-11-15T12:21:53;2.93;;;1.07;;
8791;SDS011;4432;50.890;4.744;2022-11-15T12:24:31;23.23;;;2.93;;
8791;SDS011;4432;50.890;4.744;2022-11-15T12:30:00;2.63;;;1.00;;
8791;SDS011;4432;50.890;4.744;2022-11-15T12:32:37;1.90;;;0.87;;
8791;SDS011;4432;50.890;4.744;2022-11-15T12:35:05;1.13;;;1.03;;
8791;SDS011;4432;50.890;4.744;2022-11-15T12:37:47;3.37;;;1.17;;
8791;SDS011;4432;50.890;4.744;2022-11-15T12:40:24;3.53;;;1.40;;
8791;SDS011;4432;50.890;4.744;2022-11-15T12:43:00;3.33;;;1.30;;
8791;SDS011;4432;50.890;4.744;2022-11-15T12:45:31;4.97;;;1.40;;
8791;SDS011;4432;50.890;4.744;2022-11-15T12:50:53;1.00;;;0.90;;
8791;SDS011;4432;50.890;4.744;2022-11-15T12:58:55;6.33;;;1.20;;
8791;SDS011;4432;50.890;4.744;2022-11-15T13:06:46;1.67;;;1.00;;
8791;SDS011;4432;50.890;4.744;2022-11-15T13:11:57;12.97;;;2.33;;
8791;SDS011;4432;50.890;4.744;2022-11-15T13:17:02;2.80;;;0.87;;
8791;SDS011;4432;50.890;4.744;2022-11-15T13:19:37;0.80;;;0.80;;
8791;SDS011;4432;50.890;4.744;2022-11-15T13:22:10;3.23;;;1.23;;
8791;SDS011;4432;50.890;4.744;2022-11-15T13:24:54;2.93;;;1.50;;
8791;SDS011;4432;50.890;4.744;2022-11-15T13:27:20;2.73;;;0.80;;
8791;SDS011;4432;50.890;4.744;2022-11-15T13:29:46;2.07;;;0.90;;
8791;SDS011;4432;50.890;4.744;2022-11-15T13:32:12;0.80;;;0.80;;
8791;SDS011;4432;50.890;4.744;2022-11-15T13:34:43;2.53;;;0.97;;
8791;SDS011;4432;50.890;4.744;2022-11-15T13:39:45;0.93;;;0.90;;
8791;SDS011;4432;50.890;4.744;2022-11-15T13:42:14;2.33;;;1.00;;
8791;SDS011;4432;50.890;4.744;2022-11-15T13:44:53;2.33;;;1.00;;
8791;SDS011;4432;50.890;4.744;2022-11-15T13:47:28;2.37;;;1.20;;
8791;SDS011;4432;50.890;4.744;2022-11-15T13:49:58;2.50;;;0.83;;
8791;SDS011;4432;50.890;4.744;2022-11-15T13:52:31;1.03;;;1.03;;
8791;SDS011;4432;50.890;4.744;2022-11-15T13:55:04;1.37;;;0.90;;
8791;SDS011;4432;50.890;4.744;2022-11-15T14:06:04;5.70;;;1.30;;
8791;SDS011;4432;50.890;4.744;2022-11-15T14:08:35;1.27;;;1.10;;
8791;SDS011;4432;50.890;4.744;2022-11-15T14:19:03;1.40;;;1.03;;
8791;SDS011;4432;50.890;4.744;2022-11-15T14:21:30;1.73;;;0.90;;
8791;SDS011;4432;50.890;4.744;2022-11-15T14:24:18;1.77;;;1.10;;
8791;SDS011;4432;50.890;4.744;2022-11-15T14:26:45;1.80;;;1.10;;
8791;SDS011;4432;50.890;4.744;2022-11-15T14:29:30;14.63;;;3.63;;
8791;SDS011;4432;50.890;4.744;2022-11-15T14:32:11;17.13;;;2.30;;
8791;SDS011;4432;50.890;4.744;2022-11-15T14:34:39;0.97;;;0.97;;
8791;SDS011;4432;50.890;4.744;2022-11-15T14:37:08;1.87;;;1.00;;
8791;SDS011;4432;50.890;4.744;2022-11-15T14:39:49;1.03;;;1.03;;
8791;SDS011;4432;50.890;4.744;2022-11-15T14:42:16;1.13;;;1.00;;
8791;SDS011;4432;50.890;4.744;2022-11-15T14:44:42;0.80;;;0.80;;
8791;SDS011;4432;50.890;4.744;2022-11-15T14:47:08;42.77;;;6.70;;
8791;SDS011;4432;50.890;4.744;2022-11-15T14:49:34;2.60;;;1.03;;
8791;SDS011;4432;50.890;4.744;2022-11-15T14:51:59;2.63;;;1.00;;
8791;SDS011;4432;50.890;4.744;2022-11-15T14:54:25;7.67;;;1.40;;
8791;SDS011;4432;50.890;4.744;2022-11-15T14:56:51;1.00;;;0.90;;
8791;SDS011;4432;50.890;4.744;2022-11-15T14:59:16;2.30;;;1.27;;
8791;SDS011;4432;50.890;4.744;2022-11-15T15:01:42;5.20;;;1.10;;
8791;SDS011;4432;50.890;4.744;2022-11-15T15:04:09;1.20;;;1.10;;
8791;SDS011;4432;50.890;4.744;2022-11-15T15:06:35;1.37;;;1.27;;
8791;SDS011;4432;50.890;4.744;2022-11-15T15:09:01;1.97;;;1.00;;
8791;SDS011;4432;50.890;4.744;2022-11-15T15:11:27;2.40;;;1.40;;
8791;SDS011;4432;50.890;4.744;2022-11-15T15:13:54;1.27;;;1.17;;
8791;SDS011;4432;50.890;4.744;2022-11-15T15:16:22;1.03;;;1.00;;
8791;SDS011;4432;50.890;4.744;2022-11-15T15:18:49;1.40;;;1.27;;
8791;SDS011;4432;50.890;4.744;2022-11-15T15:21:17;1.63;;;1.17;;
8791;SDS011;4432;50.890;4.744;2022-11-15T15:23:49;1.23;;;1.10;;
8791;SDS011;4432;50.890;4.744;2022-11-15T15:26:14;1.10;;;1.00;;
8791;SDS011;4432;50.890;4.744;2022-11-15T15:28:40;1.10;;;1.10;;
8791;SDS011;4432;50.890;4.744;2022-11-15T15:31:07;2.00;;;1.13;;
8791;SDS011;4432;50.890;4.744;2022-11-15T15:33:34;1.17;;;1.07;;
8791;SDS011;4432;50.890;4.744;2022-11-15T15:36:00;1.30;;;1.10;;
8791;SDS011;4432;50.890;4.744;2022-11-15T15:38:25;1.47;;;1.07;;
8791;SDS011;4432;50.890;4.744;2022-11-15T15:40:51;1.00;;;1.00;;
8791;SDS011;4432;50.890;4.744;2022-11-15T15:43:17;4.67;;;1.23;;
8791;SDS011;4432;50.890;4.744;2022-11-15T15:45:43;4.17;;;1.00;;
8791;SDS011;4432;50.890;4.744;2022-11-15T15:48:13;1.33;;;1.17;;
8791;SDS011;4432;50.890;4.744;2022-11-15T15:50:41;1.20;;;1.13;;
8791;SDS011;4432;50.890;4.744;2022-11-15T15:53:13;1.00;;;1.00;;
8791;SDS011;4432;50.890;4.744;2022-11-15T15:55:39;1.40;;;1.30;;
8791;SDS011;4432;50.890;4.744;2022-11-15T15:58:05;2.33;;;1.40;;
8791;SDS011;4432;50.890;4.744;2022-11-15T16:00:31;1.33;;;1.23;;
8791;SDS011;4432;50.890;4.744;2022-11-15T16:03:00;3.60;;;1.20;;
8791;SDS011;4432;50.890;4.744;2022-11-15T16:05:25;2.80;;;1.33;;
8791;SDS011;4432;50.890;4.744;2022-11-15T16:07:51;1.50;;;1.23;;
8791;SDS011;4432;50.890;4.744;2022-11-15T16:12:47;2.67;;;1.17;;
8791;SDS011;4432;50.890;4.744;2022-11-15T16:15:14;1.40;;;1.30;;
8791;SDS011;4432;50.890;4.744;2022-11-15T16:17:41;2.87;;;1.70;;
8791;SDS011;4432;50.890;4.744;2022-11-15T16:20:36;2.13;;;1.90;;
8791;SDS011;4432;50.890;4.744;2022-11-15T16:23:08;2.03;;;1.60;;
8791;SDS011;4432;50.890;4.744;2022-11-15T16:25:45;1.60;;;1.47;;
8791;SDS011;4432;50.890;4.744;2022-11-15T16:30:48;4.00;;;2.17;;
8791;SDS011;4432;50.890;4.744;2022-11-15T16:33:15;4.27;;;1.90;;
8791;SDS011;4432;50.890;4.744;2022-11-15T16:35:42;2.10;;;1.83;;
8791;SDS011;4432;50.890;4.744;2022-11-15T16:38:12;1.73;;;1.63;;
8791;SDS011;4432;50.890;4.744;2022-11-15T16:40:40;2.90;;;2.40;;
8791;SDS011;4432;50.890;4.744;2022-11-15T16:43:05;2.73;;;1.93;;
8791;SDS011;4432;50.890;4.744;2022-11-15T16:45:33;3.43;;;2.10;;
8791;SDS011;4432;50.890;4.744;2022-11-15T16:47:59;6.63;;;2.13;;
8791;SDS011;4432;50.890;4.744;2022-11-15T16:50:29;3.53;;;2.13;;
8791;SDS011;4432;50.890;4.744;2022-11-15T16:52:59;3.80;;;1.93;;
8791;SDS011;4432;50.890;4.744;2022-11-15T16:55:26;1.70;;;1.40;;
8791;SDS011;4432;50.890;4.744;2022-11-15T16:57:53;1.63;;;1.40;;
8791;SDS011;4432;50.890;4.744;2022-11-15T17:00:22;1.97;;;1.80;;
8791;SDS011;4432;50.890;4.744;2022-11-15T17:02:49;2.40;;;2.07;;
8791;SDS011;4432;50.890;4.744;2022-11-15T17:05:16;2.13;;;1.90;;
8791;SDS011;4432;50.890;4.744;2022-11-15T17:07:45;2.17;;;2.03;;
8791;SDS011;4432;50.890;4.744;2022-11-15T17:10:16;3.57;;;2.20;;
8791;SDS011;4432;50.890;4.744;2022-11-15T17:12:42;3.07;;;1.87;;
8791;SDS011;4432;50.890;4.744;2022-11-15T17:15:09;2.30;;;2.10;;
8791;SDS011;4432;50.890;4.744;2022-11-15T17:17:36;2.23;;;2.03;;
8791;SDS011;4432;50.890;4.744;2022-11-15T17:20:02;2.43;;;2.23;;
8791;SDS011;4432;50.890;4.744;2022-11-15T17:22:36;2.67;;;1.87;;
8791;SDS011;4432;50.890;4.744;2022-11-15T17:25:02;2.93;;;2.13;;